ECLK1: Elk City Lake

Data processed at Sat Dec 09 2017 23:02


All information presented herein is the property of the government of the United States of America and may be revised or deleted at any time without prior notice.
Dissemination of this information without the expressed written consent of the Public Affairs Office, Tulsa District U.S. Army Corps of Engineers is strictly prohibited.
These data are gathered electronically and, as presented, have not undergone any form of quality control. These data are not guaranteed to be valid or correct.
Go to home page.
Go to station list.

Upstream stations:

Downstream station:
Previous Day
Next Day
Current Day
    
SHEF ID:       ECLK1     Elk City Lake
STATION TYPE:  RESERVOIR
Normal Pool:  Bottom =   764.00, Top =   796.00

               PRECIP ELEVATION   STORAGE    INFLOW   RELEASE  AIR-TEMP  WIND-DIRWIND-SPEED REL-HUMID SOLAR-RAD   VOLTAGE  BAT-LOAD
                   in        ft     ac-ft       cfs       cfs         F       deg       mph         %      W/m2      volt      volt
              Ccp-Rev   Ccp-Rev   Ccp-Rev  Regi-Rev  Regi-Rev   Ccp-Rev   Ccp-Rev   Ccp-Rev   Ccp-Rev   Ccp-Rev   Ccp-Rev   Ccp-Rev
(US/Central)
12/07 00:00      0.00    796.56     39486        15        15     34.72    348.80      6.50     57.57      0.00     13.58     12.70
12/07 01:00      0.00    796.54     39412        15        15     32.13      7.64      8.12     53.35      0.00     13.57      ----
12/07 02:00      0.00    796.56     39486        15        15     30.63      2.32      6.94     50.74      0.00     13.53     12.90
12/07 03:00      0.00    796.55     39449        15        15     28.35    356.20      7.08     53.41      0.00     13.55     12.88
12/07 04:00      0.00    796.54     39412        14        15     26.11    329.46      6.19     57.36      0.00     13.59     12.94
12/07 05:00      0.00    796.56     39486        13        15     24.64    356.50      6.02     61.46      0.00     13.57     12.88
12/07 06:00      0.00    796.56     39486        10        15     23.49    339.81      5.39     64.42      0.00     13.59     12.88
12/07 07:00      0.00    796.55     39449         0        15     22.15    336.54      4.85     67.63      0.00     13.58     12.93
12/07 08:00      0.00    796.55     39449         7        15     21.45    324.17      3.96     69.66      1.77     13.55     12.86
12/07 09:00      0.00    796.55     39449         5        15     23.13    323.53      6.82     65.89    192.77     13.57     12.88
12/07 10:00      0.00    796.53     39376         3        15     25.54    334.14      8.54     56.00    382.07     13.57     12.91
12/07 11:00      0.00    796.54     39412        11        15     27.59    334.69      7.55     49.10    531.46     13.50      ----
12/07 12:00      0.00    796.54     39412        14        15     30.40    335.52      6.78     42.39    620.36     13.57     12.86
12/07 13:00      0.00    796.55     39449        17         0     32.67    330.07      7.10     38.24    640.66     13.44     12.90
12/07 14:00      0.00    796.55     39449        18        15     34.43    325.60      6.89     34.79    586.27     13.58     12.88
12/07 15:00      0.00    796.55     39449        19        15     35.94    307.79      5.92     30.88    472.57     13.55     12.88
12/07 16:00      0.00    796.54     39412        12        15     36.75    315.10      5.30     28.56    301.02     13.46     12.93
12/07 17:00      0.00    796.55     39449        12         0     35.74    308.75      3.90     28.55     98.00     13.59     12.84
12/07 18:00      0.00    796.54     39412        12        15     32.18    335.53      2.56     33.82      0.00     13.51     12.92
12/07 19:00      0.00    796.55     39449        14        15     29.86    349.50      2.14     38.66      0.00     13.54     12.89
12/07 20:00      0.00    796.55     39449        15        15     28.83    345.08      1.36     40.31      0.00     13.57     12.86
12/07 21:00      0.00    796.55     39449        15        15     26.60    309.24      1.75     42.23      0.00     13.44     12.94
12/07 22:00      0.00    796.54     39412        15        15     25.92      1.42      2.26     42.96      0.00     13.55     12.86
12/07 23:00      0.00    796.55     39449        12        15     24.53    353.47      2.74     45.73      0.00     13.50     12.89